Impacts METAR Board
IDs:

KFPR - Ft Pierce/St Lucie I, FL, US

Updated at: 0700 UTC 22 Oct 2021
Potential Impact None Slight Moderate High
Time 21/19Z 21/20Z 21/21Z 21/22Z 21/23Z 22/00Z 22/01Z 22/02Z 22/03Z 22/04Z 22/05Z 22/06Z 22/07Z
Temp83 83 83 81 78 76 72 71 75 76 71 69 67
Dewpt67 67 68 67 66 66 66 67 68 67 65 65 65
Altim30.09 30.08 30.09 30.09 30.09 30.09 30.10 30.10 30.10 30.08 30.07 30.06 30.04
VIS10 10 10 10 10 10 10 10 10 10 10 10 10
CIG60 -- -- -- -- -- -- -- 34 -- -- -- --
CoverBKNCLRFEWCLRCLRCLRCLR--OVCCLRCLRCLRCLR
FltCatVFRVFRVFRVFRVFRVFRVFRVFRVFRVFRVFRVFRVFR
WX--------------------------
WDir1101101201109090000120000
WSpd12 10 7 9 6 4 0 0 0 6 0 0 0
WGst-- -- -- -- -- -- -- -- -- -- -- -- --
Raw hourly METARs
KFPR 211853Z 11012KT 10SM SCT035 BKN060 28/19 A3009 RMK AO2 SLP190 T02830194
KFPR 211953Z 11010KT 10SM CLR 28/19 A3008 RMK AO2 SLP186 T02830194
KFPR 212053Z 12007KT 10SM FEW031 28/20 A3009 RMK AO2 SLP188 T02830200 55010
KFPR 212153Z 11009KT 10SM CLR 27/19 A3009 RMK AO2 SLP187 T02720194
KFPR 212253Z 09006KT 10SM CLR 26/19 A3009 RMK AO2 SLP187 T02560189
KFPR 212353Z 09004KT 10SM CLR 24/19 A3009 RMK AO2 SLP188 T02440189 10300 20244 53000
KFPR 220053Z 00000KT 10SM CLR 22/19 A3010 RMK AO2 SLP191 T02220189
KFPR 220153Z AUTO 00000KT 10SM 22/19 A3010 RMK AO2 SLP192 T02170194 $
KFPR 220253Z AUTO 00000KT 10SM BKN034 OVC046 24/20 A3010 RMK AO2 SLP191 T02390200 $
KFPR 220353Z AUTO 12006KT 10SM CLR 24/19 A3008 RMK AO2 SLP187 T02440194 $
KFPR 220453Z AUTO 00000KT 10SM CLR 22/18 A3007 RMK AO2 SLP181 T02170183 403000217 $
KFPR 220553Z AUTO 00000KT 10SM CLR 21/18 A3006 RMK AO2 SLP177 T02060183 10256 20206 57014 $
KFPR 220653Z AUTO 00000KT 10SM CLR 19/18 A3004 RMK AO2 SLP173 T01940183 $



Page loaded:  07:00 UTC  |   12:00 AM Pacific  |   01:00 AM Mountain  |   02:00 AM Central  |   03:00 AM Eastern

 

ADVISORIES

FORECASTS

FORECASTS

OBSERVATIONS

USER TOOLS

ABOUT US